sensor_id;sensor_type;location;lat;lon;timestamp;P1;durP1;ratioP1;P2;durP2;ratioP2
18249;SDS011;27980;52.126;5.572;2023-08-17T00:01:41;2.00;;;1.00;;
18249;SDS011;27980;52.126;5.572;2023-08-17T00:04:07;2.28;;;1.45;;
18249;SDS011;27980;52.126;5.572;2023-08-17T00:06:34;1.75;;;1.20;;
18249;SDS011;27980;52.126;5.572;2023-08-17T00:09:00;3.20;;;1.35;;
18249;SDS011;27980;52.126;5.572;2023-08-17T00:11:29;2.10;;;1.33;;
18249;SDS011;27980;52.126;5.572;2023-08-17T00:13:55;1.23;;;1.10;;
18249;SDS011;27980;52.126;5.572;2023-08-17T00:16:22;1.48;;;1.10;;
18249;SDS011;27980;52.126;5.572;2023-08-17T00:18:51;1.55;;;1.17;;
18249;SDS011;27980;52.126;5.572;2023-08-17T00:21:17;4.00;;;1.40;;
18249;SDS011;27980;52.126;5.572;2023-08-17T00:23:44;1.60;;;1.05;;
18249;SDS011;27980;52.126;5.572;2023-08-17T00:26:10;1.83;;;1.20;;
18249;SDS011;27980;52.126;5.572;2023-08-17T00:28:37;1.73;;;1.33;;
18249;SDS011;27980;52.126;5.572;2023-08-17T00:31:03;2.58;;;1.25;;
18249;SDS011;27980;52.126;5.572;2023-08-17T00:33:30;6.47;;;1.40;;
18249;SDS011;27980;52.126;5.572;2023-08-17T00:35:58;3.28;;;1.30;;
18249;SDS011;27980;52.126;5.572;2023-08-17T00:38:24;1.85;;;1.20;;
18249;SDS011;27980;52.126;5.572;2023-08-17T00:40:51;2.25;;;1.20;;
18249;SDS011;27980;52.126;5.572;2023-08-17T00:43:17;2.97;;;1.45;;
18249;SDS011;27980;52.126;5.572;2023-08-17T00:45:44;3.50;;;1.17;;
18249;SDS011;27980;52.126;5.572;2023-08-17T00:48:12;4.40;;;1.40;;
18249;SDS011;27980;52.126;5.572;2023-08-17T00:50:38;1.55;;;1.00;;
18249;SDS011;27980;52.126;5.572;2023-08-17T00:53:07;2.53;;;1.38;;
18249;SDS011;27980;52.126;5.572;2023-08-17T00:55:38;1.02;;;1.02;;
18249;SDS011;27980;52.126;5.572;2023-08-17T00:58:07;3.17;;;1.05;;
18249;SDS011;27980;52.126;5.572;2023-08-17T01:00:33;2.60;;;1.00;;
18249;SDS011;27980;52.126;5.572;2023-08-17T01:03:00;1.65;;;1.00;;
18249;SDS011;27980;52.126;5.572;2023-08-17T01:05:26;5.07;;;1.20;;
18249;SDS011;27980;52.126;5.572;2023-08-17T01:07:53;2.05;;;1.48;;
18249;SDS011;27980;52.126;5.572;2023-08-17T01:10:23;2.65;;;1.30;;
18249;SDS011;27980;52.126;5.572;2023-08-17T01:12:52;1.77;;;1.15;;
18249;SDS011;27980;52.126;5.572;2023-08-17T01:15:22;0.82;;;0.77;;
18249;SDS011;27980;52.126;5.572;2023-08-17T01:17:52;2.45;;;1.20;;
18249;SDS011;27980;52.126;5.572;2023-08-17T01:20:20;2.97;;;1.35;;
18249;SDS011;27980;52.126;5.572;2023-08-17T01:22:48;1.63;;;0.80;;
18249;SDS011;27980;52.126;5.572;2023-08-17T01:25:16;5.55;;;1.02;;
18249;SDS011;27980;52.126;5.572;2023-08-17T01:27:45;2.53;;;1.20;;
18249;SDS011;27980;52.126;5.572;2023-08-17T01:30:12;3.13;;;1.23;;
18249;SDS011;27980;52.126;5.572;2023-08-17T01:32:40;0.90;;;0.90;;
18249;SDS011;27980;52.126;5.572;2023-08-17T01:35:09;3.45;;;1.50;;
18249;SDS011;27980;52.126;5.572;2023-08-17T01:37:37;2.75;;;1.10;;
18249;SDS011;27980;52.126;5.572;2023-08-17T01:40:05;3.47;;;1.00;;
18249;SDS011;27980;52.126;5.572;2023-08-17T01:42:35;1.90;;;0.95;;
18249;SDS011;27980;52.126;5.572;2023-08-17T01:45:03;2.88;;;1.15;;
18249;SDS011;27980;52.126;5.572;2023-08-17T01:47:29;3.13;;;1.20;;
18249;SDS011;27980;52.126;5.572;2023-08-17T01:49:56;1.95;;;0.90;;
18249;SDS011;27980;52.126;5.572;2023-08-17T01:52:25;1.52;;;1.00;;
18249;SDS011;27980;52.126;5.572;2023-08-17T01:54:54;1.48;;;0.90;;
18249;SDS011;27980;52.126;5.572;2023-08-17T01:57:21;2.58;;;1.80;;
18249;SDS011;27980;52.126;5.572;2023-08-17T01:59:50;3.15;;;1.10;;
18249;SDS011;27980;52.126;5.572;2023-08-17T02:02:18;2.35;;;1.17;;
18249;SDS011;27980;52.126;5.572;2023-08-17T02:04:46;2.58;;;1.20;;
18249;SDS011;27980;52.126;5.572;2023-08-17T02:07:13;2.63;;;1.20;;
18249;SDS011;27980;52.126;5.572;2023-08-17T02:09:39;4.35;;;1.17;;
18249;SDS011;27980;52.126;5.572;2023-08-17T02:12:09;2.38;;;1.40;;
18249;SDS011;27980;52.126;5.572;2023-08-17T02:14:36;2.30;;;1.10;;
18249;SDS011;27980;52.126;5.572;2023-08-17T02:17:04;1.52;;;1.05;;
18249;SDS011;27980;52.126;5.572;2023-08-17T02:19:31;2.33;;;0.98;;
18249;SDS011;27980;52.126;5.572;2023-08-17T02:21:57;6.10;;;1.20;;
18249;SDS011;27980;52.126;5.572;2023-08-17T02:24:24;4.65;;;1.13;;
18249;SDS011;27980;52.126;5.572;2023-08-17T02:26:51;2.05;;;1.08;;
18249;SDS011;27980;52.126;5.572;2023-08-17T02:29:17;1.73;;;1.33;;
18249;SDS011;27980;52.126;5.572;2023-08-17T02:31:44;3.03;;;1.00;;
18249;SDS011;27980;52.126;5.572;2023-08-17T02:34:11;2.70;;;1.10;;
18249;SDS011;27980;52.126;5.572;2023-08-17T02:36:38;3.75;;;1.10;;
18249;SDS011;27980;52.126;5.572;2023-08-17T02:39:06;2.35;;;1.42;;
18249;SDS011;27980;52.126;5.572;2023-08-17T02:41:32;3.28;;;1.10;;
18249;SDS011;27980;52.126;5.572;2023-08-17T02:43:59;2.72;;;1.38;;
18249;SDS011;27980;52.126;5.572;2023-08-17T02:46:25;3.05;;;1.30;;
18249;SDS011;27980;52.126;5.572;2023-08-17T02:48:52;1.15;;;1.00;;
18249;SDS011;27980;52.126;5.572;2023-08-17T02:51:19;1.55;;;0.98;;
18249;SDS011;27980;52.126;5.572;2023-08-17T02:53:46;1.38;;;0.90;;
18249;SDS011;27980;52.126;5.572;2023-08-17T02:56:13;2.95;;;1.27;;
18249;SDS011;27980;52.126;5.572;2023-08-17T02:58:40;3.83;;;0.90;;
18249;SDS011;27980;52.126;5.572;2023-08-17T03:01:06;2.08;;;1.15;;
18249;SDS011;27980;52.126;5.572;2023-08-17T03:03:33;1.92;;;1.20;;
18249;SDS011;27980;52.126;5.572;2023-08-17T03:05:59;4.50;;;1.00;;
18249;SDS011;27980;52.126;5.572;2023-08-17T03:08:27;3.95;;;1.38;;
18249;SDS011;27980;52.126;5.572;2023-08-17T03:10:55;2.72;;;1.23;;
18249;SDS011;27980;52.126;5.572;2023-08-17T03:13:21;3.13;;;1.38;;
18249;SDS011;27980;52.126;5.572;2023-08-17T03:15:48;2.00;;;0.98;;
18249;SDS011;27980;52.126;5.572;2023-08-17T03:18:15;4.07;;;1.20;;
18249;SDS011;27980;52.126;5.572;2023-08-17T03:20:41;1.95;;;1.38;;
18249;SDS011;27980;52.126;5.572;2023-08-17T03:23:10;0.90;;;0.90;;
18249;SDS011;27980;52.126;5.572;2023-08-17T03:25:39;3.58;;;1.02;;
18249;SDS011;27980;52.126;5.572;2023-08-17T03:28:05;2.85;;;1.20;;
18249;SDS011;27980;52.126;5.572;2023-08-17T03:30:34;1.40;;;1.15;;
18249;SDS011;27980;52.126;5.572;2023-08-17T03:33:00;2.35;;;1.20;;
18249;SDS011;27980;52.126;5.572;2023-08-17T03:35:27;3.10;;;1.10;;
18249;SDS011;27980;52.126;5.572;2023-08-17T03:37:53;6.13;;;1.77;;
18249;SDS011;27980;52.126;5.572;2023-08-17T03:40:20;3.22;;;1.20;;
18249;SDS011;27980;52.126;5.572;2023-08-17T03:42:50;1.15;;;1.05;;
18249;SDS011;27980;52.126;5.572;2023-08-17T03:45:17;3.53;;;1.25;;
18249;SDS011;27980;52.126;5.572;2023-08-17T03:47:45;2.38;;;1.20;;
18249;SDS011;27980;52.126;5.572;2023-08-17T03:50:12;1.35;;;1.20;;
18249;SDS011;27980;52.126;5.572;2023-08-17T03:52:38;1.67;;;1.25;;
18249;SDS011;27980;52.126;5.572;2023-08-17T03:55:05;2.35;;;1.35;;
18249;SDS011;27980;52.126;5.572;2023-08-17T03:57:33;2.63;;;1.20;;
18249;SDS011;27980;52.126;5.572;2023-08-17T04:00:06;3.17;;;1.10;;
18249;SDS011;27980;52.126;5.572;2023-08-17T04:02:33;2.05;;;1.42;;
18249;SDS011;27980;52.126;5.572;2023-08-17T04:04:59;2.97;;;1.48;;
18249;SDS011;27980;52.126;5.572;2023-08-17T04:07:26;1.73;;;1.05;;
18249;SDS011;27980;52.126;5.572;2023-08-17T04:09:52;5.25;;;1.25;;
18249;SDS011;27980;52.126;5.572;2023-08-17T04:12:19;3.55;;;1.45;;
18249;SDS011;27980;52.126;5.572;2023-08-17T04:14:45;2.60;;;1.25;;
18249;SDS011;27980;52.126;5.572;2023-08-17T04:17:13;1.20;;;1.13;;
18249;SDS011;27980;52.126;5.572;2023-08-17T04:19:39;2.63;;;1.23;;
18249;SDS011;27980;52.126;5.572;2023-08-17T04:22:06;2.47;;;1.33;;
18249;SDS011;27980;52.126;5.572;2023-08-17T04:24:32;3.28;;;1.45;;
18249;SDS011;27980;52.126;5.572;2023-08-17T04:26:58;1.30;;;1.10;;
18249;SDS011;27980;52.126;5.572;2023-08-17T04:29:26;2.10;;;1.10;;
18249;SDS011;27980;52.126;5.572;2023-08-17T04:31:53;2.67;;;1.50;;
18249;SDS011;27980;52.126;5.572;2023-08-17T04:34:21;1.10;;;0.85;;
18249;SDS011;27980;52.126;5.572;2023-08-17T04:36:47;1.15;;;1.02;;
18249;SDS011;27980;52.126;5.572;2023-08-17T04:39:15;2.55;;;1.30;;
18249;SDS011;27980;52.126;5.572;2023-08-17T04:41:45;3.58;;;1.13;;
18249;SDS011;27980;52.126;5.572;2023-08-17T04:44:11;5.03;;;1.30;;
18249;SDS011;27980;52.126;5.572;2023-08-17T04:46:38;1.08;;;0.93;;
18249;SDS011;27980;52.126;5.572;2023-08-17T04:49:04;4.78;;;1.25;;
18249;SDS011;27980;52.126;5.572;2023-08-17T04:51:35;1.35;;;1.00;;
18249;SDS011;27980;52.126;5.572;2023-08-17T04:54:01;3.25;;;1.45;;
18249;SDS011;27980;52.126;5.572;2023-08-17T04:56:27;1.58;;;1.00;;
18249;SDS011;27980;52.126;5.572;2023-08-17T04:58:54;3.13;;;1.10;;
18249;SDS011;27980;52.126;5.572;2023-08-17T05:01:22;2.70;;;1.23;;
18249;SDS011;27980;52.126;5.572;2023-08-17T05:03:52;3.25;;;1.52;;
18249;SDS011;27980;52.126;5.572;2023-08-17T05:06:18;1.85;;;1.00;;
18249;SDS011;27980;52.126;5.572;2023-08-17T05:08:46;2.75;;;1.40;;
18249;SDS011;27980;52.126;5.572;2023-08-17T05:11:12;1.98;;;1.35;;
18249;SDS011;27980;52.126;5.572;2023-08-17T05:13:39;4.65;;;1.33;;
18249;SDS011;27980;52.126;5.572;2023-08-17T05:16:06;3.22;;;0.95;;
18249;SDS011;27980;52.126;5.572;2023-08-17T05:18:34;3.60;;;1.33;;
18249;SDS011;27980;52.126;5.572;2023-08-17T05:21:00;2.25;;;1.42;;
18249;SDS011;27980;52.126;5.572;2023-08-17T05:23:27;5.28;;;1.05;;
18249;SDS011;27980;52.126;5.572;2023-08-17T05:25:55;2.05;;;1.20;;
18249;SDS011;27980;52.126;5.572;2023-08-17T05:28:22;2.53;;;1.10;;
18249;SDS011;27980;52.126;5.572;2023-08-17T05:30:48;2.70;;;1.02;;
18249;SDS011;27980;52.126;5.572;2023-08-17T05:33:14;1.77;;;1.10;;
18249;SDS011;27980;52.126;5.572;2023-08-17T05:35:42;3.78;;;1.27;;
18249;SDS011;27980;52.126;5.572;2023-08-17T05:38:09;3.30;;;1.10;;
18249;SDS011;27980;52.126;5.572;2023-08-17T05:40:35;1.50;;;0.80;;
18249;SDS011;27980;52.126;5.572;2023-08-17T05:43:05;2.10;;;1.10;;
18249;SDS011;27980;52.126;5.572;2023-08-17T05:45:33;3.88;;;1.20;;
18249;SDS011;27980;52.126;5.572;2023-08-17T05:48:02;3.28;;;1.20;;
18249;SDS011;27980;52.126;5.572;2023-08-17T05:50:29;1.98;;;1.10;;
18249;SDS011;27980;52.126;5.572;2023-08-17T05:52:57;3.85;;;1.30;;
18249;SDS011;27980;52.126;5.572;2023-08-17T05:55:24;1.20;;;1.00;;
18249;SDS011;27980;52.126;5.572;2023-08-17T05:57:53;5.18;;;1.23;;
18249;SDS011;27980;52.126;5.572;2023-08-17T06:00:24;1.17;;;1.08;;
18249;SDS011;27980;52.126;5.572;2023-08-17T06:02:52;3.20;;;1.10;;
18249;SDS011;27980;52.126;5.572;2023-08-17T06:05:22;4.07;;;1.33;;
18249;SDS011;27980;52.126;5.572;2023-08-17T06:07:51;1.48;;;1.30;;
18249;SDS011;27980;52.126;5.572;2023-08-17T06:10:18;2.67;;;1.30;;
18249;SDS011;27980;52.126;5.572;2023-08-17T06:12:46;4.32;;;1.40;;
18249;SDS011;27980;52.126;5.572;2023-08-17T06:15:28;2.03;;;1.27;;
18249;SDS011;27980;52.126;5.572;2023-08-17T06:17:55;2.00;;;1.00;;
18249;SDS011;27980;52.126;5.572;2023-08-17T06:20:22;3.78;;;1.10;;
18249;SDS011;27980;52.126;5.572;2023-08-17T06:22:48;3.42;;;1.10;;
18249;SDS011;27980;52.126;5.572;2023-08-17T06:25:16;1.35;;;1.13;;
18249;SDS011;27980;52.126;5.572;2023-08-17T06:27:43;1.45;;;1.02;;
18249;SDS011;27980;52.126;5.572;2023-08-17T06:30:10;2.53;;;1.20;;
18249;SDS011;27980;52.126;5.572;2023-08-17T06:32:38;3.42;;;1.58;;
18249;SDS011;27980;52.126;5.572;2023-08-17T06:35:05;3.15;;;1.42;;
18249;SDS011;27980;52.126;5.572;2023-08-17T06:37:32;4.38;;;1.30;;
18249;SDS011;27980;52.126;5.572;2023-08-17T06:39:58;3.35;;;1.17;;
18249;SDS011;27980;52.126;5.572;2023-08-17T06:42:25;2.72;;;1.10;;
18249;SDS011;27980;52.126;5.572;2023-08-17T06:44:51;2.95;;;1.25;;
18249;SDS011;27980;52.126;5.572;2023-08-17T06:47:18;4.30;;;1.60;;
18249;SDS011;27980;52.126;5.572;2023-08-17T06:49:49;2.45;;;1.20;;
18249;SDS011;27980;52.126;5.572;2023-08-17T06:52:17;3.00;;;1.10;;
18249;SDS011;27980;52.126;5.572;2023-08-17T06:54:43;1.65;;;1.05;;
18249;SDS011;27980;52.126;5.572;2023-08-17T06:57:10;3.53;;;1.38;;
18249;SDS011;27980;52.126;5.572;2023-08-17T06:59:36;2.92;;;1.38;;
18249;SDS011;27980;52.126;5.572;2023-08-17T07:02:03;2.28;;;1.17;;
18249;SDS011;27980;52.126;5.572;2023-08-17T07:04:29;1.73;;;1.10;;
18249;SDS011;27980;52.126;5.572;2023-08-17T07:06:59;1.25;;;1.15;;
18249;SDS011;27980;52.126;5.572;2023-08-17T07:09:28;1.75;;;1.10;;
18249;SDS011;27980;52.126;5.572;2023-08-17T07:11:54;1.95;;;1.10;;
18249;SDS011;27980;52.126;5.572;2023-08-17T07:14:22;2.15;;;1.48;;
18249;SDS011;27980;52.126;5.572;2023-08-17T07:16:49;2.95;;;1.25;;
18249;SDS011;27980;52.126;5.572;2023-08-17T07:19:16;3.40;;;1.50;;
18249;SDS011;27980;52.126;5.572;2023-08-17T07:21:43;3.17;;;1.75;;
18249;SDS011;27980;52.126;5.572;2023-08-17T07:24:15;2.88;;;1.10;;
18249;SDS011;27980;52.126;5.572;2023-08-17T07:26:42;2.97;;;1.42;;
18249;SDS011;27980;52.126;5.572;2023-08-17T07:29:09;2.97;;;1.48;;
18249;SDS011;27980;52.126;5.572;2023-08-17T07:31:36;3.50;;;1.25;;
18249;SDS011;27980;52.126;5.572;2023-08-17T07:34:03;2.22;;;1.30;;
18249;SDS011;27980;52.126;5.572;2023-08-17T07:36:29;1.70;;;1.30;;
18249;SDS011;27980;52.126;5.572;2023-08-17T07:38:56;4.57;;;1.25;;
18249;SDS011;27980;52.126;5.572;2023-08-17T07:41:24;3.42;;;1.27;;
18249;SDS011;27980;52.126;5.572;2023-08-17T07:43:50;1.90;;;1.17;;
18249;SDS011;27980;52.126;5.572;2023-08-17T07:46:17;4.45;;;1.48;;
18249;SDS011;27980;52.126;5.572;2023-08-17T07:48:43;2.50;;;1.08;;
18249;SDS011;27980;52.126;5.572;2023-08-17T07:51:09;2.05;;;1.58;;
18249;SDS011;27980;52.126;5.572;2023-08-17T07:53:36;2.33;;;1.20;;
18249;SDS011;27980;52.126;5.572;2023-08-17T07:56:02;5.53;;;1.65;;
18249;SDS011;27980;52.126;5.572;2023-08-17T07:58:30;3.22;;;1.20;;
18249;SDS011;27980;52.126;5.572;2023-08-17T08:00:58;3.17;;;1.30;;
18249;SDS011;27980;52.126;5.572;2023-08-17T08:03:25;2.38;;;1.10;;
18249;SDS011;27980;52.126;5.572;2023-08-17T08:05:52;2.80;;;0.90;;
18249;SDS011;27980;52.126;5.572;2023-08-17T08:08:19;1.67;;;0.98;;
18249;SDS011;27980;52.126;5.572;2023-08-17T08:10:47;2.40;;;0.98;;
18249;SDS011;27980;52.126;5.572;2023-08-17T08:13:13;2.92;;;0.93;;
18249;SDS011;27980;52.126;5.572;2023-08-17T08:15:42;2.90;;;1.00;;
18249;SDS011;27980;52.126;5.572;2023-08-17T08:18:08;3.47;;;1.17;;
18249;SDS011;27980;52.126;5.572;2023-08-17T08:20:35;3.50;;;1.17;;
18249;SDS011;27980;52.126;5.572;2023-08-17T08:23:01;3.60;;;1.17;;
18249;SDS011;27980;52.126;5.572;2023-08-17T08:25:28;1.75;;;1.20;;
18249;SDS011;27980;52.126;5.572;2023-08-17T08:27:55;3.70;;;1.02;;
18249;SDS011;27980;52.126;5.572;2023-08-17T08:30:21;2.17;;;1.10;;
18249;SDS011;27980;52.126;5.572;2023-08-17T08:32:49;1.90;;;0.93;;
18249;SDS011;27980;52.126;5.572;2023-08-17T08:35:17;5.38;;;1.25;;
18249;SDS011;27980;52.126;5.572;2023-08-17T08:37:43;1.15;;;1.05;;
18249;SDS011;27980;52.126;5.572;2023-08-17T08:40:11;6.10;;;1.30;;
18249;SDS011;27980;52.126;5.572;2023-08-17T08:42:38;5.07;;;1.15;;
18249;SDS011;27980;52.126;5.572;2023-08-17T08:45:05;1.80;;;1.00;;
18249;SDS011;27980;52.126;5.572;2023-08-17T08:47:33;2.15;;;1.20;;
18249;SDS011;27980;52.126;5.572;2023-08-17T08:50:02;3.40;;;1.52;;
18249;SDS011;27980;52.126;5.572;2023-08-17T08:52:32;1.38;;;1.10;;
18249;SDS011;27980;52.126;5.572;2023-08-17T08:55:03;3.25;;;1.48;;
18249;SDS011;27980;52.126;5.572;2023-08-17T08:57:31;4.05;;;1.25;;
18249;SDS011;27980;52.126;5.572;2023-08-17T08:59:58;4.28;;;1.33;;
18249;SDS011;27980;52.126;5.572;2023-08-17T09:02:25;2.72;;;1.33;;
18249;SDS011;27980;52.126;5.572;2023-08-17T09:04:54;2.80;;;1.30;;
18249;SDS011;27980;52.126;5.572;2023-08-17T09:07:21;2.58;;;1.50;;
18249;SDS011;27980;52.126;5.572;2023-08-17T09:09:48;3.15;;;1.60;;
18249;SDS011;27980;52.126;5.572;2023-08-17T09:12:15;3.97;;;1.42;;
18249;SDS011;27980;52.126;5.572;2023-08-17T09:14:42;6.47;;;1.60;;
18249;SDS011;27980;52.126;5.572;2023-08-17T09:17:09;4.95;;;1.98;;
18249;SDS011;27980;52.126;5.572;2023-08-17T09:19:35;3.03;;;1.70;;
18249;SDS011;27980;52.126;5.572;2023-08-17T09:22:02;5.18;;;1.70;;
18249;SDS011;27980;52.126;5.572;2023-08-17T09:24:36;2.58;;;1.65;;
18249;SDS011;27980;52.126;5.572;2023-08-17T09:27:02;2.63;;;1.40;;
18249;SDS011;27980;52.126;5.572;2023-08-17T09:29:32;3.50;;;1.60;;
18249;SDS011;27980;52.126;5.572;2023-08-17T09:32:06;3.20;;;1.50;;
18249;SDS011;27980;52.126;5.572;2023-08-17T09:34:32;5.53;;;1.63;;
18249;SDS011;27980;52.126;5.572;2023-08-17T09:37:02;7.43;;;2.22;;
18249;SDS011;27980;52.126;5.572;2023-08-17T09:39:29;5.57;;;1.90;;
18249;SDS011;27980;52.126;5.572;2023-08-17T09:41:57;4.68;;;1.77;;
18249;SDS011;27980;52.126;5.572;2023-08-17T09:44:23;5.75;;;2.00;;
18249;SDS011;27980;52.126;5.572;2023-08-17T09:46:51;7.15;;;2.30;;
18249;SDS011;27980;52.126;5.572;2023-08-17T09:49:17;3.78;;;1.70;;
18249;SDS011;27980;52.126;5.572;2023-08-17T09:51:45;4.93;;;2.33;;
18249;SDS011;27980;52.126;5.572;2023-08-17T09:54:18;4.93;;;2.20;;
18249;SDS011;27980;52.126;5.572;2023-08-17T09:56:46;4.32;;;1.85;;
18249;SDS011;27980;52.126;5.572;2023-08-17T09:59:14;4.88;;;2.33;;
18249;SDS011;27980;52.126;5.572;2023-08-17T10:01:41;3.65;;;2.20;;
18249;SDS011;27980;52.126;5.572;2023-08-17T10:04:10;4.10;;;2.13;;
18249;SDS011;27980;52.126;5.572;2023-08-17T10:06:36;6.50;;;2.28;;
18249;SDS011;27980;52.126;5.572;2023-08-17T10:09:05;5.57;;;2.17;;
18249;SDS011;27980;52.126;5.572;2023-08-17T10:11:32;6.40;;;2.33;;
18249;SDS011;27980;52.126;5.572;2023-08-17T10:14:01;4.47;;;2.20;;
18249;SDS011;27980;52.126;5.572;2023-08-17T10:16:33;8.10;;;2.03;;
18249;SDS011;27980;52.126;5.572;2023-08-17T10:19:05;4.40;;;2.35;;
18249;SDS011;27980;52.126;5.572;2023-08-17T10:21:33;3.75;;;2.08;;
18249;SDS011;27980;52.126;5.572;2023-08-17T10:24:01;5.63;;;2.28;;
18249;SDS011;27980;52.126;5.572;2023-08-17T10:26:28;5.40;;;2.42;;
18249;SDS011;27980;52.126;5.572;2023-08-17T10:28:55;4.78;;;1.95;;
18249;SDS011;27980;52.126;5.572;2023-08-17T10:31:23;5.18;;;1.90;;
18249;SDS011;27980;52.126;5.572;2023-08-17T10:33:52;4.45;;;1.90;;
18249;SDS011;27980;52.126;5.572;2023-08-17T10:36:19;6.43;;;2.30;;
18249;SDS011;27980;52.126;5.572;2023-08-17T10:39:02;3.00;;;2.05;;
18249;SDS011;27980;52.126;5.572;2023-08-17T10:41:45;3.20;;;1.45;;
18249;SDS011;27980;52.126;5.572;2023-08-17T10:44:12;4.50;;;2.05;;
18249;SDS011;27980;52.126;5.572;2023-08-17T10:46:40;3.85;;;2.20;;
18249;SDS011;27980;52.126;5.572;2023-08-17T10:49:24;3.67;;;2.08;;
18249;SDS011;27980;52.126;5.572;2023-08-17T10:51:59;5.15;;;2.63;;
18249;SDS011;27980;52.126;5.572;2023-08-17T10:54:35;4.43;;;2.65;;
18249;SDS011;27980;52.126;5.572;2023-08-17T10:59:43;2.17;;;1.80;;
18249;SDS011;27980;52.126;5.572;2023-08-17T11:02:10;5.32;;;2.78;;
18249;SDS011;27980;52.126;5.572;2023-08-17T11:04:38;3.13;;;2.33;;
18249;SDS011;27980;52.126;5.572;2023-08-17T11:07:05;4.65;;;2.47;;
18249;SDS011;27980;52.126;5.572;2023-08-17T11:09:39;7.38;;;1.98;;
18249;SDS011;27980;52.126;5.572;2023-08-17T11:12:09;3.33;;;1.92;;
18249;SDS011;27980;52.126;5.572;2023-08-17T11:14:50;4.30;;;2.17;;
18249;SDS011;27980;52.126;5.572;2023-08-17T11:17:19;5.82;;;1.88;;
18249;SDS011;27980;52.126;5.572;2023-08-17T11:19:47;4.55;;;2.10;;
18249;SDS011;27980;52.126;5.572;2023-08-17T11:22:16;4.18;;;2.30;;
18249;SDS011;27980;52.126;5.572;2023-08-17T11:24:43;4.93;;;2.45;;
18249;SDS011;27980;52.126;5.572;2023-08-17T11:27:11;5.47;;;1.77;;
18249;SDS011;27980;52.126;5.572;2023-08-17T11:29:38;4.22;;;1.73;;
18249;SDS011;27980;52.126;5.572;2023-08-17T11:32:04;3.13;;;1.92;;
18249;SDS011;27980;52.126;5.572;2023-08-17T11:34:31;3.65;;;1.98;;
18249;SDS011;27980;52.126;5.572;2023-08-17T11:37:00;4.28;;;1.88;;
18249;SDS011;27980;52.126;5.572;2023-08-17T11:39:30;2.35;;;1.90;;
18249;SDS011;27980;52.126;5.572;2023-08-17T11:41:58;6.30;;;2.13;;
18249;SDS011;27980;52.126;5.572;2023-08-17T11:44:25;5.07;;;2.10;;
18249;SDS011;27980;52.126;5.572;2023-08-17T11:46:51;3.13;;;1.85;;
18249;SDS011;27980;52.126;5.572;2023-08-17T11:49:18;3.42;;;1.88;;
18249;SDS011;27980;52.126;5.572;2023-08-17T11:51:44;3.53;;;2.25;;
18249;SDS011;27980;52.126;5.572;2023-08-17T11:54:12;3.65;;;1.77;;
18249;SDS011;27980;52.126;5.572;2023-08-17T11:56:38;3.22;;;1.83;;
18249;SDS011;27980;52.126;5.572;2023-08-17T11:59:09;3.78;;;1.98;;
18249;SDS011;27980;52.126;5.572;2023-08-17T12:01:39;6.32;;;2.30;;
18249;SDS011;27980;52.126;5.572;2023-08-17T12:04:05;2.90;;;1.88;;
18249;SDS011;27980;52.126;5.572;2023-08-17T12:06:32;2.20;;;1.90;;
18249;SDS011;27980;52.126;5.572;2023-08-17T12:09:04;4.00;;;2.00;;
18249;SDS011;27980;52.126;5.572;2023-08-17T12:11:32;4.35;;;1.90;;
18249;SDS011;27980;52.126;5.572;2023-08-17T12:13:58;3.53;;;2.15;;
18249;SDS011;27980;52.126;5.572;2023-08-17T12:16:25;3.10;;;1.95;;
18249;SDS011;27980;52.126;5.572;2023-08-17T12:18:52;3.15;;;1.70;;
18249;SDS011;27980;52.126;5.572;2023-08-17T12:21:20;2.90;;;2.00;;
18249;SDS011;27980;52.126;5.572;2023-08-17T12:23:47;2.65;;;2.13;;
18249;SDS011;27980;52.126;5.572;2023-08-17T12:26:17;3.45;;;2.50;;
18249;SDS011;27980;52.126;5.572;2023-08-17T12:28:45;5.00;;;3.00;;
18249;SDS011;27980;52.126;5.572;2023-08-17T12:31:12;4.60;;;2.30;;
18249;SDS011;27980;52.126;5.572;2023-08-17T12:33:39;3.50;;;2.50;;
18249;SDS011;27980;52.126;5.572;2023-08-17T12:36:06;4.43;;;2.58;;
18249;SDS011;27980;52.126;5.572;2023-08-17T12:38:33;3.75;;;2.38;;
18249;SDS011;27980;52.126;5.572;2023-08-17T12:41:03;4.05;;;1.95;;
18249;SDS011;27980;52.126;5.572;2023-08-17T12:43:29;2.95;;;2.22;;
18249;SDS011;27980;52.126;5.572;2023-08-17T12:45:57;4.95;;;2.40;;
18249;SDS011;27980;52.126;5.572;2023-08-17T12:48:25;2.85;;;2.45;;
18249;SDS011;27980;52.126;5.572;2023-08-17T12:50:51;2.78;;;2.20;;
18249;SDS011;27980;52.126;5.572;2023-08-17T12:53:18;3.63;;;2.13;;
18249;SDS011;27980;52.126;5.572;2023-08-17T12:55:45;6.55;;;2.50;;
18249;SDS011;27980;52.126;5.572;2023-08-17T12:58:11;4.10;;;2.50;;
18249;SDS011;27980;52.126;5.572;2023-08-17T13:00:39;2.88;;;2.20;;
18249;SDS011;27980;52.126;5.572;2023-08-17T13:03:08;5.32;;;3.55;;
18249;SDS011;27980;52.126;5.572;2023-08-17T13:05:35;4.03;;;2.42;;
18249;SDS011;27980;52.126;5.572;2023-08-17T13:08:05;2.58;;;2.15;;
18249;SDS011;27980;52.126;5.572;2023-08-17T13:10:31;4.93;;;2.30;;
18249;SDS011;27980;52.126;5.572;2023-08-17T13:12:58;3.20;;;2.15;;
18249;SDS011;27980;52.126;5.572;2023-08-17T13:15:25;3.22;;;2.10;;
18249;SDS011;27980;52.126;5.572;2023-08-17T13:17:53;3.28;;;2.03;;
18249;SDS011;27980;52.126;5.572;2023-08-17T13:20:21;2.90;;;2.10;;
18249;SDS011;27980;52.126;5.572;2023-08-17T13:22:47;3.22;;;2.20;;
18249;SDS011;27980;52.126;5.572;2023-08-17T13:25:14;4.10;;;2.20;;
18249;SDS011;27980;52.126;5.572;2023-08-17T13:27:44;3.90;;;2.17;;
18249;SDS011;27980;52.126;5.572;2023-08-17T13:30:10;3.38;;;2.30;;
18249;SDS011;27980;52.126;5.572;2023-08-17T13:32:37;4.15;;;2.30;;
18249;SDS011;27980;52.126;5.572;2023-08-17T13:35:04;2.92;;;2.55;;
18249;SDS011;27980;52.126;5.572;2023-08-17T13:37:32;3.08;;;2.05;;
18249;SDS011;27980;52.126;5.572;2023-08-17T13:39:59;4.32;;;2.38;;
18249;SDS011;27980;52.126;5.572;2023-08-17T13:42:26;3.60;;;2.42;;
18249;SDS011;27980;52.126;5.572;2023-08-17T13:44:53;3.00;;;2.10;;
18249;SDS011;27980;52.126;5.572;2023-08-17T13:47:19;3.70;;;2.40;;
18249;SDS011;27980;52.126;5.572;2023-08-17T13:49:45;3.85;;;2.10;;
18249;SDS011;27980;52.126;5.572;2023-08-17T13:52:12;4.18;;;2.63;;
18249;SDS011;27980;52.126;5.572;2023-08-17T13:54:40;4.05;;;2.83;;
18249;SDS011;27980;52.126;5.572;2023-08-17T13:57:06;3.67;;;2.40;;
18249;SDS011;27980;52.126;5.572;2023-08-17T13:59:33;6.72;;;3.28;;
18249;SDS011;27980;52.126;5.572;2023-08-17T14:02:00;4.53;;;2.80;;
18249;SDS011;27980;52.126;5.572;2023-08-17T14:04:26;3.78;;;2.58;;
18249;SDS011;27980;52.126;5.572;2023-08-17T14:06:52;3.70;;;2.55;;
18249;SDS011;27980;52.126;5.572;2023-08-17T14:09:19;3.33;;;2.75;;
18249;SDS011;27980;52.126;5.572;2023-08-17T14:11:46;5.28;;;3.03;;
18249;SDS011;27980;52.126;5.572;2023-08-17T14:14:13;4.05;;;2.13;;
18249;SDS011;27980;52.126;5.572;2023-08-17T14:16:39;5.07;;;2.78;;
18249;SDS011;27980;52.126;5.572;2023-08-17T14:19:06;6.65;;;2.92;;
18249;SDS011;27980;52.126;5.572;2023-08-17T14:21:33;3.83;;;3.08;;
18249;SDS011;27980;52.126;5.572;2023-08-17T14:23:59;4.32;;;2.88;;
18249;SDS011;27980;52.126;5.572;2023-08-17T14:26:29;2.75;;;2.10;;
18249;SDS011;27980;52.126;5.572;2023-08-17T14:28:57;4.88;;;2.83;;
18249;SDS011;27980;52.126;5.572;2023-08-17T14:31:23;3.45;;;2.60;;
18249;SDS011;27980;52.126;5.572;2023-08-17T14:33:49;4.00;;;2.50;;
18249;SDS011;27980;52.126;5.572;2023-08-17T14:36:16;3.55;;;2.53;;
18249;SDS011;27980;52.126;5.572;2023-08-17T14:38:46;4.40;;;3.03;;
18249;SDS011;27980;52.126;5.572;2023-08-17T14:41:13;7.45;;;2.80;;
18249;SDS011;27980;52.126;5.572;2023-08-17T14:43:40;4.03;;;3.13;;
18249;SDS011;27980;52.126;5.572;2023-08-17T14:46:10;4.88;;;2.72;;
18249;SDS011;27980;52.126;5.572;2023-08-17T14:48:36;4.43;;;3.03;;
18249;SDS011;27980;52.126;5.572;2023-08-17T14:51:03;4.68;;;2.53;;
18249;SDS011;27980;52.126;5.572;2023-08-17T14:53:29;3.53;;;3.20;;